createdAt,value
2022-11-18T00:03:18.624Z,2.80
2022-11-18T00:08:22.963Z,2.30
2022-11-18T00:13:44.854Z,3.00
2022-11-18T00:18:48.402Z,1.60
2022-11-18T00:23:51.595Z,2.70
2022-11-18T00:28:54.859Z,3.00
2022-11-18T00:33:58.033Z,2.60
2022-11-18T00:39:01.235Z,1.70
2022-11-18T00:44:09.341Z,1.70
2022-11-18T00:49:13.067Z,1.80
2022-11-18T00:54:16.562Z,2.10
2022-11-18T00:59:20.273Z,2.00
2022-11-18T01:04:23.972Z,2.50
2022-11-18T01:09:27.170Z,2.00
2022-11-18T01:14:30.384Z,1.90
2022-11-18T01:19:33.541Z,1.70
2022-11-18T01:24:36.745Z,2.00
2022-11-18T01:29:40.045Z,2.30
2022-11-18T01:34:43.263Z,2.10
2022-11-18T01:39:46.800Z,1.30
2022-11-18T01:44:59.121Z,2.50
2022-11-18T01:50:03.758Z,2.40
2022-11-18T01:55:13.538Z,1.30
2022-11-18T02:00:17.712Z,1.90
2022-11-18T02:05:22.242Z,2.30
2022-11-18T02:10:25.467Z,2.20
2022-11-18T02:15:47.913Z,2.10
2022-11-18T02:20:57.106Z,1.50
2022-11-18T02:26:05.925Z,1.70
2022-11-18T02:31:18.671Z,2.20
2022-11-18T02:36:31.125Z,3.10
2022-11-18T02:41:37.741Z,2.80
2022-11-18T02:46:43.717Z,2.90
2022-11-18T02:51:50.801Z,2.80
2022-11-18T02:56:55.593Z,1.80
2022-11-18T03:01:58.901Z,3.50
2022-11-18T03:07:30.320Z,4.00
2022-11-18T03:12:49.669Z,2.90
2022-11-18T03:18:31.182Z,2.80
2022-11-18T03:23:48.723Z,3.00
2022-11-18T03:29:16.859Z,2.30
2022-11-18T03:34:40.972Z,2.40
2022-11-18T03:39:52.880Z,1.60
2022-11-18T03:45:06.488Z,3.20
2022-11-18T03:50:22.935Z,2.60
2022-11-18T03:55:30.548Z,3.00
2022-11-18T04:00:40.396Z,2.00
2022-11-18T04:05:44.676Z,2.60
2022-11-18T04:11:04.458Z,2.10
2022-11-18T04:16:10.061Z,2.10
2022-11-18T04:21:13.256Z,2.50
2022-11-18T04:26:18.158Z,2.60
2022-11-18T04:31:21.397Z,3.10
2022-11-18T04:36:24.644Z,3.00
2022-11-18T04:41:47.766Z,3.20
2022-11-18T04:46:51.912Z,3.70
2022-11-18T04:51:56.527Z,2.80
2022-11-18T04:56:59.899Z,3.10
2022-11-18T05:02:03.248Z,2.00
2022-11-18T05:07:08.133Z,3.90
2022-11-18T05:12:32.631Z,2.80
2022-11-18T05:17:36.487Z,1.60
2022-11-18T05:22:40.767Z,2.70
2022-11-18T05:27:45.462Z,1.60
2022-11-18T05:32:49.744Z,2.60
2022-11-18T05:37:55.612Z,2.50
2022-11-18T05:43:11.512Z,2.70
2022-11-18T05:48:15.165Z,1.80
2022-11-18T05:53:20.584Z,1.90
2022-11-18T05:58:24.180Z,1.60
2022-11-18T06:03:32.316Z,1.90
2022-11-18T06:08:39.720Z,1.20
2022-11-18T06:13:50.721Z,1.00
2022-11-18T06:18:54.052Z,1.30
2022-11-18T06:23:57.510Z,1.50
2022-11-18T06:29:00.742Z,1.90
2022-11-18T06:34:22.501Z,1.10
2022-11-18T06:39:25.824Z,1.20
2022-11-18T06:44:28.979Z,0.80
2022-11-18T06:49:32.260Z,0.80
2022-11-18T06:54:35.542Z,1.20
2022-11-18T06:59:38.823Z,1.50
2022-11-18T07:04:42.227Z,0.70
2022-11-18T07:09:45.659Z,1.50
2022-11-18T07:14:48.888Z,1.50
2022-11-18T07:19:52.191Z,1.40
2022-11-18T07:24:55.468Z,1.60
2022-11-18T07:29:58.584Z,1.30
2022-11-18T07:35:01.848Z,1.20
2022-11-18T07:40:05.959Z,1.10
2022-11-18T07:45:13.720Z,1.00
2022-11-18T07:50:18.549Z,1.10
2022-11-18T07:55:21.847Z,0.70
2022-11-18T08:00:25.185Z,1.10
2022-11-18T08:05:28.590Z,1.80
2022-11-18T08:10:32.044Z,0.90
2022-11-18T08:15:35.247Z,1.50
2022-11-18T08:20:52.388Z,1.30
2022-11-18T08:26:12.242Z,2.00
2022-11-18T08:31:19.768Z,1.70
2022-11-18T08:36:25.653Z,1.60
2022-11-18T08:41:42.202Z,1.60
2022-11-18T08:46:46.254Z,1.30
2022-11-18T08:51:49.637Z,1.50
2022-11-18T08:56:56.370Z,1.50
2022-11-18T09:01:59.951Z,2.00
2022-11-18T09:07:06.244Z,1.80
2022-11-18T09:12:10.697Z,2.60
2022-11-18T09:17:15.708Z,2.60
2022-11-18T09:22:39.657Z,3.50
2022-11-18T09:27:43.013Z,1.90
2022-11-18T09:32:49.363Z,1.70
2022-11-18T09:37:52.539Z,1.50
2022-11-18T09:43:12.906Z,1.70
2022-11-18T09:48:42.334Z,1.70
2022-11-18T09:53:46.473Z,1.40
2022-11-18T09:58:50.894Z,2.20
2022-11-18T10:03:56.176Z,2.70
2022-11-18T10:09:20.961Z,1.60
2022-11-18T10:14:41.523Z,1.60
2022-11-18T10:20:35.012Z,1.10
2022-11-18T10:25:38.241Z,1.70
2022-11-18T10:30:41.816Z,1.50
2022-11-18T10:35:45.412Z,1.60
2022-11-18T10:41:02.026Z,1.40
2022-11-18T10:46:34.404Z,1.00
2022-11-18T10:51:38.617Z,1.40
2022-11-18T10:57:06.636Z,1.40
2022-11-18T11:02:15.895Z,1.10
2022-11-18T11:07:32.597Z,1.20
2022-11-18T11:12:39.079Z,0.90
2022-11-18T11:17:45.972Z,1.60
2022-11-18T11:22:50.109Z,1.20
2022-11-18T11:28:16.991Z,0.60
2022-11-18T11:33:53.421Z,1.40
2022-11-18T11:39:34.524Z,1.50
2022-11-18T11:45:07.514Z,1.80
2022-11-18T11:50:17.891Z,1.50
2022-11-18T11:55:53.583Z,1.60
2022-11-18T12:01:20.236Z,2.20
2022-11-18T12:06:24.549Z,1.60
2022-11-18T12:11:46.272Z,2.30
2022-11-18T12:16:59.206Z,1.30
2022-11-18T12:22:04.320Z,1.60
2022-11-18T12:27:19.343Z,1.30
2022-11-18T12:32:31.713Z,1.70
2022-11-18T12:37:44.273Z,1.70
2022-11-18T12:43:06.252Z,1.20
2022-11-18T12:48:27.533Z,0.70
2022-11-18T12:53:41.546Z,0.80
2022-11-18T12:58:48.432Z,1.30
2022-11-18T13:04:07.034Z,2.00
2022-11-18T13:09:30.523Z,1.70
2022-11-18T13:15:03.771Z,1.90
2022-11-18T13:20:36.822Z,1.30
2022-11-18T13:25:42.891Z,1.60
2022-11-18T13:31:04.344Z,2.90
2022-11-18T13:36:25.326Z,1.80
2022-11-18T13:41:34.548Z,2.60
2022-11-18T13:46:40.970Z,1.30
2022-11-18T13:51:44.253Z,1.90
2022-11-18T13:56:47.700Z,1.60
2022-11-18T14:02:00.400Z,1.80
2022-11-18T14:07:24.919Z,1.90
2022-11-18T14:17:58.148Z,2.00
2022-11-18T14:23:03.783Z,2.30
2022-11-18T14:28:18.264Z,2.90
2022-11-18T14:33:24.503Z,1.80
2022-11-18T14:44:02.805Z,3.20
2022-11-18T14:49:10.407Z,1.60
2022-11-18T14:54:20.767Z,2.20
2022-11-18T14:59:29.167Z,2.30
2022-11-18T15:04:32.360Z,2.70
2022-11-18T15:09:35.551Z,2.90
2022-11-18T15:14:39.701Z,3.70
2022-11-18T15:19:43.154Z,4.00
2022-11-18T15:24:46.346Z,4.60
2022-11-18T15:29:50.688Z,4.30
2022-11-18T15:34:53.917Z,6.00
2022-11-18T15:39:57.141Z,5.90
2022-11-18T15:45:01.436Z,7.70
2022-11-18T15:50:05.952Z,7.00
2022-11-18T15:55:09.653Z,7.90
2022-11-18T16:00:13.877Z,9.20
2022-11-18T16:05:17.084Z,5.60
2022-11-18T16:10:38.903Z,5.70
2022-11-18T16:15:44.887Z,8.00
2022-11-18T16:20:48.361Z,7.90
2022-11-18T16:25:54.201Z,7.90
2022-11-18T16:31:16.635Z,11.20
2022-11-18T16:36:26.914Z,7.70
2022-11-18T16:41:34.070Z,7.00
2022-11-18T16:46:40.790Z,6.50
2022-11-18T16:51:46.884Z,2.80
2022-11-18T16:56:51.670Z,3.90
2022-11-18T17:01:57.057Z,5.90
2022-11-18T17:07:00.621Z,6.10
2022-11-18T17:12:04.549Z,6.80
2022-11-18T17:17:08.290Z,9.80
2022-11-18T17:22:12.671Z,8.50
2022-11-18T17:27:16.035Z,9.00
2022-11-18T17:32:22.452Z,8.30
2022-11-18T17:37:25.764Z,5.80
2022-11-18T17:42:33.325Z,6.80
2022-11-18T17:47:36.701Z,7.90
2022-11-18T17:52:39.966Z,6.70
2022-11-18T17:57:43.276Z,3.30
2022-11-18T18:02:46.493Z,5.70
2022-11-18T18:07:51.740Z,6.40
2022-11-18T18:13:13.798Z,6.40
2022-11-18T18:18:18.028Z,8.20
2022-11-18T18:23:23.557Z,8.60
2022-11-18T18:28:26.756Z,4.20
2022-11-18T18:33:30.975Z,8.30
2022-11-18T18:38:36.682Z,7.90
2022-11-18T18:43:41.033Z,8.80
2022-11-18T18:48:44.264Z,5.70
2022-11-18T18:53:47.440Z,8.40
2022-11-18T18:58:52.044Z,8.90
2022-11-18T19:04:00.805Z,6.60
2022-11-18T19:09:05.969Z,9.90
2022-11-18T19:14:12.607Z,10.30
2022-11-18T19:19:42.204Z,7.60
2022-11-18T19:24:50.253Z,7.40
2022-11-18T19:29:54.523Z,8.00
2022-11-18T19:34:57.673Z,7.40
2022-11-18T19:40:08.908Z,6.90
2022-11-18T19:45:14.457Z,5.80
2022-11-18T19:50:17.660Z,5.40
2022-11-18T19:55:20.792Z,6.10
2022-11-18T20:00:24.434Z,5.20
2022-11-18T20:05:47.494Z,5.60
2022-11-18T20:10:52.737Z,5.70
2022-11-18T20:16:06.586Z,3.20
2022-11-18T20:21:12.325Z,6.50
2022-11-18T20:26:18.141Z,5.30
2022-11-18T20:31:23.296Z,7.40
2022-11-18T20:36:33.703Z,5.50
2022-11-18T20:41:36.912Z,6.50
2022-11-18T20:46:40.010Z,5.50
2022-11-18T20:51:43.162Z,4.80
2022-11-18T20:56:46.414Z,5.40
2022-11-18T21:01:49.685Z,4.30
2022-11-18T21:06:59.061Z,4.60
2022-11-18T21:12:02.356Z,4.60
2022-11-18T21:17:05.567Z,3.10
2022-11-18T21:22:08.829Z,5.70
2022-11-18T21:27:12.092Z,4.30
2022-11-18T21:32:15.316Z,5.00
2022-11-18T21:37:18.469Z,7.30
2022-11-18T21:42:22.109Z,5.60
2022-11-18T21:47:25.570Z,6.20
2022-11-18T21:52:29.086Z,7.20
2022-11-18T21:57:32.400Z,7.40
2022-11-18T22:02:37.345Z,7.00
2022-11-18T22:07:41.668Z,6.50
2022-11-18T22:12:49.413Z,6.90
2022-11-18T22:17:52.741Z,7.10
2022-11-18T22:22:56.419Z,6.30
2022-11-18T22:27:59.602Z,6.00
2022-11-18T22:33:02.811Z,5.70
2022-11-18T22:38:06.120Z,4.60
2022-11-18T22:43:10.322Z,4.60
2022-11-18T22:48:13.982Z,4.90
2022-11-18T22:53:18.378Z,5.70
2022-11-18T22:58:21.668Z,8.40
2022-11-18T23:03:24.899Z,4.20
2022-11-18T23:08:32.382Z,3.70
2022-11-18T23:13:55.869Z,5.30
2022-11-18T23:19:08.062Z,4.40
2022-11-18T23:24:13.056Z,4.80
2022-11-18T23:29:16.862Z,3.40
2022-11-18T23:34:20.780Z,3.90
2022-11-18T23:39:23.965Z,3.90
2022-11-18T23:44:46.883Z,3.80
2022-11-18T23:49:55.984Z,3.70
2022-11-18T23:55:02.032Z,4.50
